Terminal Aerodrome Forecast
Issued by NWS

Home | Current Version | Previous Version | Text Only | Print | Product List | Glossary On
Versions: 1 2 3 4 5 6 7 8 9 10 11 12 13 14 15 16 17 18 19 20
000
FTAK31 PAFA 191140
TAFAOT
TAF
PAOT 191140Z 1912/2012 12015KT P6SM OVC100
     FM191500 15027G35KT 4SM -SN BLSN SCT015 OVC025
     FM191800 12036G42KT 1/4SM -SN BLSN OVC003=

USA.gov is the U.S. government's official web portal to all federal, state and local government web resources and services.